Time;durP1;ratioP1;P1;durP2;ratioP2;P2;SDS_P1;SDS_P2;PMS_P1;PMS_P2;Temp;Humidity;BMP_temperature;BMP_pressure;BME280_temperature;BME280_humidity;BME280_pressure;Samples;Min_cycle;Max_cycle;Signal;HPM_P1;HPM_P2
2021/03/02 00:01:15;;;;;;;19.60;9.13;;;4.90;99.90;;;;;;5009619;28;20446;-50
2021/03/02 00:03:43;;;;;;;16.07;9.80;;;4.90;99.90;;;;;;5010181;28;20450;-48
2021/03/02 00:06:13;;;;;;;19.67;10.23;;;4.80;99.90;;;;;;5010176;28;20876;-49
2021/03/02 00:08:42;;;;;;;17.53;8.57;;;4.80;99.90;;;;;;5010126;28;20921;-45
2021/03/02 00:11:10;;;;;;;18.93;9.43;;;4.80;99.90;;;;;;5010250;28;20489;-50
2021/03/02 00:13:39;;;;;;;26.73;10.87;;;4.80;99.90;;;;;;5010794;28;20449;-46
2021/03/02 00:16:08;;;;;;;18.87;10.10;;;4.80;99.90;;;;;;5010649;28;20480;-50
2021/03/02 00:18:43;;;;;;;24.43;9.67;;;4.80;99.90;;;;;;5010154;28;20442;-51
2021/03/02 00:21:18;;;;;;;19.77;10.53;;;4.90;99.90;;;;;;5010837;28;20806;-50
2021/03/02 00:23:53;;;;;;;19.87;10.07;;;4.90;99.90;;;;;;5010750;28;21013;-47
2021/03/02 00:26:24;;;;;;;17.33;9.93;;;4.90;99.90;;;;;;5010283;28;20890;-51
2021/03/02 00:28:56;;;;;;;16.33;10.10;;;4.80;99.90;;;;;;5009955;28;20790;-49
2021/03/02 00:31:26;;;;;;;15.53;9.70;;;4.80;99.90;;;;;;5010909;28;20701;-52
2021/03/02 00:33:54;;;;;;;14.43;9.10;;;4.70;99.90;;;;;;5010187;28;20791;-50
2021/03/02 00:36:23;;;;;;;25.10;9.90;;;4.70;99.90;;;;;;5010324;28;20453;-51
2021/03/02 00:38:52;;;;;;;16.50;9.27;;;4.70;99.90;;;;;;5010324;28;20939;-52
2021/03/02 00:41:20;;;;;;;20.63;8.90;;;4.70;99.90;;;;;;5009443;28;20453;-46
2021/03/02 00:43:49;;;;;;;18.40;9.40;;;4.70;99.90;;;;;;5022237;28;20477;-46
2021/03/02 00:46:18;;;;;;;16.43;9.37;;;4.60;99.90;;;;;;5029715;28;20515;-47
2021/03/02 00:48:46;;;;;;;19.67;10.37;;;4.70;99.90;;;;;;5029820;28;20449;-47
2021/03/02 00:51:14;;;;;;;18.33;9.30;;;4.70;99.90;;;;;;5029579;28;20810;-48
2021/03/02 00:53:44;;;;;;;19.17;9.73;;;4.70;99.90;;;;;;5029616;28;20453;-45
2021/03/02 00:56:12;;;;;;;18.83;10.10;;;4.60;99.90;;;;;;5029918;28;20449;-50
2021/03/02 00:58:44;;;;;;;23.00;10.07;;;4.60;99.90;;;;;;5029869;28;20782;-47
2021/03/02 01:01:13;;;;;;;20.70;11.70;;;4.60;99.90;;;;;;5031692;28;20926;-49
2021/03/02 01:03:43;;;;;;;22.13;11.00;;;4.70;99.90;;;;;;5033245;28;20479;-45
2021/03/02 01:06:11;;;;;;;18.30;9.90;;;4.70;99.90;;;;;;5032910;28;20941;-51
2021/03/02 01:08:39;;;;;;;21.17;10.40;;;4.60;99.90;;;;;;5032755;28;20453;-49
2021/03/02 01:11:09;;;;;;;21.80;10.77;;;4.60;99.90;;;;;;5033720;28;20464;-45
2021/03/02 01:13:37;;;;;;;20.00;11.80;;;4.60;99.90;;;;;;5033805;28;20866;-46
2021/03/02 01:16:06;;;;;;;14.70;9.03;;;4.60;99.90;;;;;;5033274;28;20967;-46
2021/03/02 01:18:35;;;;;;;21.30;9.87;;;4.60;99.90;;;;;;5033550;28;20437;-51
2021/03/02 01:21:04;;;;;;;17.80;9.00;;;4.60;99.90;;;;;;5033717;28;21041;-47
2021/03/02 01:23:32;;;;;;;22.33;10.20;;;4.50;99.90;;;;;;5033657;28;20937;-48
2021/03/02 01:26:01;;;;;;;18.20;9.57;;;4.40;99.90;;;;;;5033505;28;20844;-47
2021/03/02 01:28:30;;;;;;;17.90;9.77;;;4.50;99.90;;;;;;5033519;28;20875;-50
2021/03/02 01:30:58;;;;;;;17.80;8.83;;;4.50;99.90;;;;;;5033563;28;20524;-46
2021/03/02 01:33:27;;;;;;;13.83;8.07;;;4.50;99.90;;;;;;5033129;28;20449;-49
2021/03/02 01:35:55;;;;;;;19.00;9.93;;;4.50;99.90;;;;;;5036623;28;20839;-48
2021/03/02 01:38:24;;;;;;;17.83;7.90;;;4.40;99.90;;;;;;5049881;28;20448;-46
2021/03/02 01:40:53;;;;;;;25.53;10.20;;;4.30;99.90;;;;;;5047634;28;20514;-50
2021/03/02 01:43:21;;;;;;;19.03;9.80;;;4.30;99.90;;;;;;5032751;28;20481;-47
2021/03/02 01:45:51;;;;;;;17.90;8.43;;;4.40;99.90;;;;;;5030369;28;20540;-50
2021/03/02 01:48:19;;;;;;;16.70;9.63;;;4.40;99.90;;;;;;5027310;28;20488;-47
2021/03/02 01:50:47;;;;;;;21.60;12.50;;;4.30;99.90;;;;;;5027547;28;20496;-49
2021/03/02 01:53:15;;;;;;;16.90;9.07;;;4.30;99.90;;;;;;5036242;28;20422;-48
2021/03/02 01:55:44;;;;;;;22.97;10.90;;;4.30;99.90;;;;;;5040068;28;20564;-51
2021/03/02 01:58:12;;;;;;;20.43;10.43;;;4.30;99.90;;;;;;5039890;28;20449;-52
2021/03/02 02:00:41;;;;;;;15.60;9.80;;;4.30;99.90;;;;;;5032073;28;20485;-51
2021/03/02 02:03:25;;;;;;;21.63;9.70;;;4.30;99.90;;;;;;5036907;28;20601;-51
2021/03/02 02:05:59;;;;;;;21.17;9.60;;;4.30;99.90;;;;;;5019733;28;20934;-52
2021/03/02 02:08:35;;;;;;;24.20;10.93;;;4.20;99.90;;;;;;5004344;28;20791;-47
2021/03/02 02:11:09;;;;;;;25.13;9.83;;;4.30;99.90;;;;;;5007577;28;20822;-54
2021/03/02 02:13:43;;;;;;;19.50;9.00;;;4.30;99.90;;;;;;5005727;28;20817;-52
2021/03/02 02:16:13;;;;;;;20.70;9.80;;;4.20;99.90;;;;;;5004450;28;20799;-45
2021/03/02 02:18:45;;;;;;;16.20;9.47;;;4.30;99.90;;;;;;5004946;28;20448;-51
2021/03/02 02:21:22;;;;;;;18.20;9.23;;;4.20;99.90;;;;;;5003775;28;20860;-51
2021/03/02 02:24:08;;;;;;;15.60;9.37;;;4.30;99.90;;;;;;5004484;28;20795;-45
2021/03/02 02:26:53;;;;;;;23.00;10.33;;;4.30;99.90;;;;;;5004959;28;20802;-50
2021/03/02 02:29:26;;;;;;;20.37;11.27;;;4.20;99.90;;;;;;5006663;28;20750;-52
2021/03/02 02:31:56;;;;;;;23.60;9.73;;;4.20;99.90;;;;;;5004515;28;20804;-48
2021/03/02 02:34:25;;;;;;;19.70;10.17;;;4.20;99.90;;;;;;5006888;28;20454;-51
2021/03/02 02:36:56;;;;;;;21.30;9.20;;;4.20;99.90;;;;;;5007690;28;20790;-47
2021/03/02 02:39:25;;;;;;;18.03;10.27;;;4.10;99.90;;;;;;5004411;28;20809;-46
2021/03/02 02:41:55;;;;;;;16.40;8.57;;;4.10;99.90;;;;;;5004565;28;20768;-50
2021/03/02 02:44:26;;;;;;;22.73;13.50;;;4.10;99.90;;;;;;5004122;28;20865;-50
2021/03/02 02:46:58;;;;;;;17.47;9.37;;;4.10;99.90;;;;;;5004708;28;20781;-50
2021/03/02 02:49:27;;;;;;;19.80;10.80;;;4.10;99.90;;;;;;5004119;28;20860;-47
2021/03/02 02:51:56;;;;;;;26.23;12.10;;;4.10;99.90;;;;;;5005496;28;20792;-47
2021/03/02 02:54:26;;;;;;;18.17;9.50;;;4.00;99.90;;;;;;5005792;28;20935;-50
2021/03/02 02:56:56;;;;;;;21.03;9.53;;;4.00;99.90;;;;;;5006045;28;20825;-52
2021/03/02 02:59:28;;;;;;;19.70;10.27;;;4.00;99.90;;;;;;5005719;28;20474;-54
2021/03/02 03:01:59;;;;;;;19.93;9.50;;;4.00;99.90;;;;;;5004363;28;20813;-47
2021/03/02 03:04:33;;;;;;;18.20;9.33;;;4.00;99.90;;;;;;5003787;28;20786;-44
2021/03/02 03:07:04;;;;;;;18.83;9.27;;;4.00;99.90;;;;;;5004283;28;20775;-53
2021/03/02 03:09:33;;;;;;;22.20;8.93;;;3.90;99.90;;;;;;5003152;28;20772;-46
2021/03/02 03:12:06;;;;;;;17.90;9.23;;;3.90;99.90;;;;;;5004707;28;20788;-48
2021/03/02 03:14:38;;;;;;;23.03;10.90;;;3.90;99.90;;;;;;5003971;28;20910;-51
2021/03/02 03:17:11;;;;;;;24.37;11.63;;;3.80;99.90;;;;;;5005960;28;20806;-53
2021/03/02 03:19:41;;;;;;;20.23;9.60;;;3.90;99.90;;;;;;5007033;28;20817;-46
2021/03/02 03:22:10;;;;;;;20.53;11.47;;;3.90;99.90;;;;;;5005645;28;20768;-49
2021/03/02 03:24:40;;;;;;;21.47;10.50;;;3.80;99.90;;;;;;5003835;28;20799;-47
2021/03/02 03:27:10;;;;;;;17.70;9.07;;;3.80;99.90;;;;;;5003104;28;20952;-52
2021/03/02 03:29:40;;;;;;;22.50;11.07;;;3.80;99.90;;;;;;5004171;28;20903;-51
2021/03/02 03:32:10;;;;;;;27.83;9.50;;;3.80;99.90;;;;;;5005805;28;21019;-53
2021/03/02 03:34:43;;;;;;;15.67;8.70;;;3.70;99.90;;;;;;5004244;28;20811;-51
2021/03/02 03:37:11;;;;;;;17.00;10.00;;;3.70;99.90;;;;;;5008606;28;20796;-47
2021/03/02 03:39:40;;;;;;;15.80;9.43;;;3.70;99.90;;;;;;5031547;28;20480;-47
2021/03/02 03:56:29;;;;;;;19.80;9.00;;;3.50;99.90;;;;;;5559545;23;20505;-52
2021/03/02 03:59:04;;;;;;;17.23;8.50;;;3.40;99.90;;;;;;4999548;28;20441;-50
2021/03/02 04:01:33;;;;;;;16.07;9.60;;;3.50;99.90;;;;;;4990721;28;20447;-47
2021/03/02 04:22:10;;;;;;;20.37;9.20;;;3.30;99.90;;;;;;5655906;23;20492;-49
2021/03/02 04:24:38;;;;;;;18.97;9.97;;;3.20;99.90;;;;;;4984855;28;20476;-47
2021/03/02 04:27:06;;;;;;;20.23;10.07;;;3.20;99.90;;;;;;4982520;28;20810;-49
2021/03/02 04:50:18;;;;;;;17.50;9.77;;;2.90;99.90;;;;;;5133979;22;20488;-62
2021/03/02 04:52:47;;;;;;;19.03;10.23;;;2.80;99.90;;;;;;5008179;28;20783;-45
2021/03/02 04:55:15;;;;;;;15.37;8.67;;;2.70;99.90;;;;;;5007393;28;20448;-48
2021/03/02 04:57:43;;;;;;;24.70;10.47;;;2.80;99.90;;;;;;5008065;28;20479;-49
2021/03/02 05:00:13;;;;;;;24.63;8.50;;;2.70;99.90;;;;;;5008177;28;20905;-46
2021/03/02 05:02:41;;;;;;;16.30;9.77;;;2.70;99.90;;;;;;5005714;28;20573;-47
2021/03/02 05:05:10;;;;;;;22.17;11.83;;;2.60;99.90;;;;;;5007003;28;20849;-47
2021/03/02 06:19:48;;;;;;;14.73;8.60;;;1.80;99.90;;;;;;5067769;23;20480;-48
2021/03/02 06:22:35;;;;;;;16.13;9.00;;;1.80;99.90;;;;;;5016163;28;20495;-53
2021/03/02 06:25:04;;;;;;;13.23;8.67;;;1.80;99.90;;;;;;5018458;28;20477;-46
2021/03/02 06:27:33;;;;;;;15.83;9.37;;;1.70;99.90;;;;;;5022362;28;20453;-47
2021/03/02 06:30:13;;;;;;;15.43;9.87;;;1.70;99.90;;;;;;5017178;28;20467;-53
2021/03/02 06:53:23;;;;;;;18.97;9.77;;;1.70;99.90;;;;;;5662368;23;20480;-45
2021/03/02 06:55:50;;;;;;;16.50;9.83;;;1.80;99.90;;;;;;5032598;28;20714;-45
2021/03/02 06:58:23;;;;;;;18.63;9.27;;;1.80;99.90;;;;;;5019248;28;20446;-50
2021/03/02 07:00:54;;;;;;;18.27;9.03;;;1.70;99.90;;;;;;5012061;28;20473;-48
2021/03/02 07:03:24;;;;;;;20.70;9.50;;;1.70;99.90;;;;;;5016464;28;20453;-49
2021/03/02 07:05:53;;;;;;;23.80;9.17;;;1.70;99.90;;;;;;5016616;28;20507;-51
2021/03/02 07:08:21;;;;;;;17.43;9.40;;;1.80;99.90;;;;;;5010519;28;20948;-47
2021/03/02 07:10:52;;;;;;;20.80;9.20;;;1.90;99.90;;;;;;5017514;28;20903;-47
2021/03/02 07:13:21;;;;;;;19.03;10.87;;;1.90;99.90;;;;;;5022615;28;20508;-46
2021/03/02 07:15:50;;;;;;;16.47;8.33;;;2.10;99.90;;;;;;5014428;28;20477;-48
2021/03/02 07:18:21;;;;;;;17.37;8.83;;;2.10;99.90;;;;;;5006885;28;20498;-46
2021/03/02 07:20:50;;;;;;;17.50;9.50;;;2.10;99.90;;;;;;5017270;28;20469;-53
2021/03/02 07:23:22;;;;;;;16.10;9.33;;;2.10;99.90;;;;;;5027351;28;20824;-47
2021/03/02 07:25:55;;;;;;;23.80;10.33;;;2.10;99.90;;;;;;5020950;28;21020;-50
2021/03/02 07:28:27;;;;;;;19.50;10.20;;;2.20;99.90;;;;;;5021542;28;20421;-48
2021/03/02 07:30:54;;;;;;;21.30;9.47;;;2.40;99.90;;;;;;5014928;28;20971;-47
2021/03/02 07:33:22;;;;;;;18.97;9.57;;;2.40;99.90;;;;;;5022828;28;20441;-53
2021/03/02 07:35:54;;;;;;;19.13;9.33;;;2.40;99.90;;;;;;5028498;28;20792;-51
2021/03/02 07:38:23;;;;;;;15.60;8.57;;;2.40;99.90;;;;;;5020202;28;20460;-47
2021/03/02 07:40:53;;;;;;;15.57;9.20;;;2.50;99.90;;;;;;5020353;28;20871;-46
2021/03/02 07:43:33;;;;;;;24.37;8.87;;;2.50;99.90;;;;;;5018255;28;20896;-46
2021/03/02 07:46:03;;;;;;;18.23;10.30;;;2.60;99.90;;;;;;5018471;28;20894;-51
2021/03/02 07:48:37;;;;;;;16.40;9.83;;;2.70;99.90;;;;;;5017383;28;20437;-52
2021/03/02 07:51:22;;;;;;;21.83;11.70;;;2.70;99.90;;;;;;5010943;28;20810;-48
2021/03/02 07:53:50;;;;;;;25.93;11.40;;;2.70;99.90;;;;;;5003336;28;20489;-46
2021/03/02 07:56:22;;;;;;;20.23;11.27;;;2.70;99.90;;;;;;5015965;28;20493;-47
2021/03/02 07:59:18;;;;;;;16.57;8.53;;;2.70;99.90;;;;;;5018545;28;20463;-51
2021/03/02 08:02:16;;;;;;;28.27;10.10;;;2.70;99.90;;;;;;5008813;28;20445;-44
2021/03/02 08:04:48;;;;;;;20.77;10.83;;;2.90;99.90;;;;;;4939505;29;20445;-50
2021/03/02 08:07:24;;;;;;;18.77;10.63;;;3.00;99.90;;;;;;5000400;28;21141;-45
2021/03/02 08:09:55;;;;;;;28.93;9.67;;;3.10;99.90;;;;;;5023105;28;20774;-45
2021/03/02 08:12:32;;;;;;;20.97;9.80;;;3.10;99.90;;;;;;5014394;28;20790;-47
2021/03/02 08:15:02;;;;;;;23.70;11.50;;;3.20;99.90;;;;;;5017376;28;20483;-47
2021/03/02 08:17:30;;;;;;;22.60;10.20;;;3.30;99.90;;;;;;5007625;28;20800;-48
2021/03/02 08:20:08;;;;;;;16.80;8.93;;;3.30;99.90;;;;;;5003060;28;20478;-49
2021/03/02 08:22:59;;;;;;;15.83;10.33;;;3.40;99.90;;;;;;5014414;28;20453;-50
2021/03/02 08:25:35;;;;;;;20.23;9.47;;;3.40;99.90;;;;;;5020839;28;20452;-46
2021/03/02 08:28:08;;;;;;;20.80;10.43;;;3.50;99.90;;;;;;5007147;28;20426;-48
2021/03/02 08:30:38;;;;;;;15.60;8.43;;;3.60;99.90;;;;;;5015609;28;20805;-47
2021/03/02 08:33:09;;;;;;;17.50;9.60;;;3.70;99.90;;;;;;5016217;28;20529;-45
2021/03/02 08:35:40;;;;;;;21.30;11.70;;;3.70;99.90;;;;;;5013623;28;20826;-44
2021/03/02 08:38:10;;;;;;;22.20;12.63;;;3.70;99.90;;;;;;5011724;28;20485;-47
2021/03/02 08:40:44;;;;;;;21.80;11.13;;;3.70;99.90;;;;;;5010830;28;20800;-45
2021/03/02 08:43:16;;;;;;;21.53;10.33;;;3.80;99.90;;;;;;5014318;28;20759;-44
2021/03/02 08:45:48;;;;;;;16.67;11.67;;;3.80;99.90;;;;;;5009368;28;20815;-49
2021/03/02 08:48:21;;;;;;;20.93;10.73;;;3.80;99.90;;;;;;5004147;28;20449;-46
2021/03/02 08:50:51;;;;;;;20.30;11.10;;;3.80;99.90;;;;;;5018764;28;20793;-47
2021/03/02 08:53:27;;;;;;;15.97;10.07;;;3.90;99.90;;;;;;5012606;28;20493;-47
2021/03/02 08:55:55;;;;;;;18.83;11.87;;;3.90;99.90;;;;;;5012024;28;20991;-51
2021/03/02 08:58:33;;;;;;;41.27;20.10;;;3.90;99.90;;;;;;5003345;28;20779;-47
2021/03/02 09:01:04;;;;;;;23.33;14.40;;;3.90;99.90;;;;;;5012217;28;20821;-46
2021/03/02 09:03:32;;;;;;;23.37;12.67;;;4.00;99.90;;;;;;5015850;28;20826;-46
2021/03/02 09:06:12;;;;;;;27.43;12.70;;;4.00;99.90;;;;;;5016497;28;20460;-44
2021/03/02 09:08:58;;;;;;;23.37;13.00;;;4.10;99.90;;;;;;5012965;28;20797;-50
2021/03/02 09:11:29;;;;;;;26.23;14.30;;;4.20;99.90;;;;;;5011207;28;20829;-46
2021/03/02 09:14:00;;;;;;;23.73;14.27;;;4.30;99.90;;;;;;5016550;28;21065;-51
2021/03/02 09:16:43;;;;;;;25.00;14.23;;;4.60;99.90;;;;;;5017957;28;20802;-48
2021/03/02 09:19:17;;;;;;;26.97;14.60;;;4.80;99.90;;;;;;5014230;28;20744;-48
2021/03/02 09:21:47;;;;;;;24.70;13.63;;;5.00;99.90;;;;;;4996711;28;20454;-50
2021/03/02 09:24:17;;;;;;;20.03;13.23;;;5.20;99.90;;;;;;5007255;28;20814;-47
2021/03/02 09:26:56;;;;;;;23.27;13.27;;;5.70;99.90;;;;;;5011270;28;20462;-47
2021/03/02 09:29:27;;;;;;;25.40;13.27;;;6.50;99.90;;;;;;5002197;28;20474;-46
2021/03/02 09:31:58;;;;;;;24.93;14.30;;;6.90;99.90;;;;;;5008131;28;20798;-49
2021/03/02 09:34:37;;;;;;;25.47;15.47;;;7.10;99.90;;;;;;5011591;28;20792;-48
2021/03/02 09:37:07;;;;;;;27.90;15.30;;;6.90;99.90;;;;;;5013674;28;20842;-48
2021/03/02 09:39:36;;;;;;;36.80;19.87;;;6.70;99.90;;;;;;5017433;28;20824;-47
2021/03/02 09:42:16;;;;;;;33.30;17.20;;;6.70;99.90;;;;;;5002848;28;20473;-48
2021/03/02 09:44:48;;;;;;;29.80;15.93;;;6.60;99.90;;;;;;5011529;28;20857;-52
2021/03/02 09:47:26;;;;;;;27.67;16.20;;;6.90;99.90;;;;;;5013376;28;20793;-49
2021/03/02 09:49:59;;;;;;;28.43;15.10;;;7.90;99.90;;;;;;5038779;23;20587;-51
2021/03/02 09:52:42;;;;;;;27.73;15.50;;;8.90;99.90;;;;;;4987339;23;20828;-52
2021/03/02 09:55:25;;;;;;;25.43;15.73;;;9.10;99.90;;;;;;4978283;28;20470;-49
2021/03/02 09:58:13;;;;;;;27.50;15.37;;;9.10;99.90;;;;;;4976447;28;21003;-51
2021/03/02 10:00:50;;;;;;;30.83;16.27;;;9.80;99.90;;;;;;4977209;28;21066;-51
2021/03/02 10:03:21;;;;;;;30.03;15.87;;;11.70;99.90;;;;;;4975331;28;20986;-50
2021/03/02 10:05:56;;;;;;;29.37;13.60;;;13.60;99.90;;;;;;4975050;28;20448;-52
2021/03/02 10:08:32;;;;;;;22.67;14.30;;;15.20;99.90;;;;;;4976436;28;20509;-50
2021/03/02 10:11:01;;;;;;;26.97;16.80;;;16.10;96.90;;;;;;4975342;28;20483;-51
2021/03/02 10:13:33;;;;;;;27.23;16.20;;;16.60;91.10;;;;;;4973028;28;20532;-51
2021/03/02 10:16:17;;;;;;;21.80;15.67;;;16.70;87.90;;;;;;4974032;28;20971;-47
2021/03/02 10:18:49;;;;;;;27.67;16.93;;;16.90;85.60;;;;;;4972066;28;20496;-51
2021/03/02 10:21:18;;;;;;;28.50;17.70;;;17.00;83.10;;;;;;4988981;28;20470;-53
2021/03/02 10:23:49;;;;;;;23.10;15.07;;;17.20;81.10;;;;;;4972385;28;20455;-51
2021/03/02 10:26:31;;;;;;;25.57;16.00;;;17.20;79.10;;;;;;4974844;28;20459;-47
2021/03/02 10:28:59;;;;;;;24.47;15.50;;;17.40;77.30;;;;;;4971826;28;20777;-49
2021/03/02 10:31:30;;;;;;;24.20;16.80;;;17.40;76.30;;;;;;4975446;28;20776;-47
2021/03/02 10:34:00;;;;;;;23.90;16.40;;;17.50;75.60;;;;;;4976001;28;20464;-48
2021/03/02 10:36:28;;;;;;;25.37;15.47;;;17.70;73.50;;;;;;4965417;28;20791;-51
2021/03/02 10:38:57;;;;;;;24.80;15.97;;;17.80;72.10;;;;;;4975544;28;20467;-48
2021/03/02 10:41:25;;;;;;;39.63;17.57;;;17.90;71.30;;;;;;4972011;28;20486;-50
2021/03/02 10:43:52;;;;;;;26.73;17.50;;;18.20;70.30;;;;;;4969134;28;20463;-48
2021/03/02 10:56:42;;;;;;;28.50;17.23;;;17.80;70.70;;;;;;5807924;22;20489;-48
2021/03/02 10:59:12;;;;;;;28.40;18.33;;;17.60;70.50;;;;;;5019022;28;20459;-51
2021/03/02 11:01:59;;;;;;;26.53;17.73;;;17.40;71.90;;;;;;5023771;28;20520;-54
2021/03/02 11:04:27;;;;;;;33.07;18.60;;;17.20;71.70;;;;;;5026204;28;20441;-48
2021/03/02 11:07:00;;;;;;;26.83;15.83;;;17.10;72.10;;;;;;5604174;22;20456;-45
2021/03/02 11:09:28;;;;;;;25.83;17.23;;;16.90;73.00;;;;;;4993626;28;20489;-51
2021/03/02 11:11:56;;;;;;;25.57;16.43;;;16.90;74.40;;;;;;4993676;28;20775;-47
2021/03/02 11:14:24;;;;;;;32.30;17.00;;;16.80;73.70;;;;;;4995304;28;20855;-49
2021/03/02 11:16:50;;;;;;;24.60;16.20;;;16.70;75.40;;;;;;4993165;28;20474;-48
2021/03/02 11:19:17;;;;;;;26.50;17.00;;;16.50;76.80;;;;;;4996701;28;21005;-47
2021/03/02 11:21:46;;;;;;;27.37;18.13;;;16.10;78.00;;;;;;4997961;28;20788;-48
2021/03/02 11:24:14;;;;;;;27.60;16.33;;;15.70;77.20;;;;;;4993715;28;20462;-53
2021/03/02 11:26:42;;;;;;;27.93;16.77;;;15.30;79.20;;;;;;4995929;28;20809;-51
2021/03/02 11:29:12;;;;;;;27.57;17.30;;;14.90;82.10;;;;;;4995359;28;20903;-51
2021/03/02 11:31:40;;;;;;;26.10;16.30;;;14.50;84.50;;;;;;4987391;28;20791;-46
2021/03/02 11:34:08;;;;;;;30.83;17.67;;;14.00;90.40;;;;;;4994788;28;20504;-48
2021/03/02 11:36:37;;;;;;;28.50;18.97;;;13.70;91.50;;;;;;4995924;28;20768;-48
2021/03/02 11:39:06;;;;;;;24.60;16.00;;;13.40;93.20;;;;;;4995979;28;20914;-49
2021/03/02 11:41:34;;;;;;;29.57;15.80;;;13.20;94.00;;;;;;4996007;28;20870;-47
2021/03/02 11:44:02;;;;;;;25.93;17.60;;;13.00;96.10;;;;;;4993837;28;20806;-47
2021/03/02 11:46:31;;;;;;;27.70;17.23;;;12.90;97.60;;;;;;4995793;28;20911;-48
2021/03/02 11:49:01;;;;;;;28.73;16.23;;;12.50;98.70;;;;;;4990310;28;20460;-46
2021/03/02 11:51:29;;;;;;;26.87;15.33;;;12.30;99.70;;;;;;4989492;28;20452;-57
2021/03/02 11:53:58;;;;;;;30.43;17.50;;;12.20;99.90;;;;;;4988856;28;20790;-58
2021/03/02 11:56:26;;;;;;;26.43;15.57;;;12.10;99.90;;;;;;4986249;28;20435;-57
2021/03/02 11:58:53;;;;;;;32.03;17.83;;;12.00;99.90;;;;;;4994675;28;20928;-58
2021/03/02 12:01:21;;;;;;;27.53;17.43;;;11.90;99.90;;;;;;4979266;28;20490;-54
2021/03/02 12:03:50;;;;;;;27.53;17.10;;;11.90;99.90;;;;;;4985861;28;20792;-58
2021/03/02 12:06:19;;;;;;;28.60;16.60;;;11.90;99.90;;;;;;4975235;28;20482;-57
2021/03/02 12:08:47;;;;;;;28.20;16.87;;;11.90;99.90;;;;;;4976909;28;21011;-58
2021/03/02 12:11:16;;;;;;;33.17;17.77;;;12.00;99.90;;;;;;4977169;28;20455;-58
2021/03/02 12:13:44;;;;;;;30.43;16.23;;;11.90;99.90;;;;;;4977701;28;20904;-57
2021/03/02 12:16:12;;;;;;;36.97;21.23;;;12.00;99.90;;;;;;4978673;28;20986;-54
2021/03/02 12:18:41;;;;;;;34.83;16.10;;;12.10;99.90;;;;;;4978779;28;20494;-56
2021/03/02 12:21:10;;;;;;;31.30;17.90;;;12.20;99.90;;;;;;4977126;28;21053;-57
2021/03/02 12:23:39;;;;;;;30.13;17.23;;;12.10;99.90;;;;;;4977384;28;20852;-56
2021/03/02 12:26:07;;;;;;;27.37;17.13;;;12.10;99.90;;;;;;4977343;28;20837;-55
2021/03/02 12:28:34;;;;;;;26.40;17.50;;;12.10;99.90;;;;;;4977115;28;20461;-56
2021/03/02 12:31:02;;;;;;;30.47;17.57;;;12.20;99.90;;;;;;4977137;28;20781;-57
2021/03/02 12:33:30;;;;;;;31.87;17.43;;;12.20;99.90;;;;;;4992625;28;20552;-55
2021/03/02 12:35:58;;;;;;;24.97;16.07;;;12.30;99.90;;;;;;4998230;28;20794;-57
2021/03/02 12:38:27;;;;;;;30.33;17.40;;;12.30;99.90;;;;;;4998465;28;20460;-56
2021/03/02 12:40:55;;;;;;;28.30;16.63;;;12.40;99.90;;;;;;4992307;28;20814;-55
2021/03/02 12:43:22;;;;;;;34.00;17.27;;;12.60;99.90;;;;;;4994220;28;20994;-56
2021/03/02 12:45:50;;;;;;;29.67;17.37;;;12.80;99.90;;;;;;4993531;28;20761;-55
2021/03/02 12:48:18;;;;;;;32.80;17.27;;;12.90;99.90;;;;;;4982363;28;20825;-56
2021/03/02 12:50:46;;;;;;;32.57;17.70;;;13.00;99.90;;;;;;4992792;28;20760;-56
2021/03/02 12:53:14;;;;;;;31.07;17.13;;;13.10;99.90;;;;;;4975480;28;20925;-57
2021/03/02 12:55:43;;;;;;;25.53;16.33;;;13.10;99.90;;;;;;4980904;28;20832;-53
2021/03/02 12:58:11;;;;;;;24.50;16.83;;;13.20;99.90;;;;;;4999009;28;20824;-52
2021/03/02 13:00:39;;;;;;;22.57;15.80;;;13.30;99.90;;;;;;5001633;28;20991;-56
2021/03/02 13:03:07;;;;;;;30.40;18.60;;;13.30;99.90;;;;;;4998722;28;20837;-57
2021/03/02 13:05:36;;;;;;;23.47;15.47;;;13.40;99.90;;;;;;4994820;28;20442;-58
2021/03/02 13:08:05;;;;;;;26.20;17.53;;;13.40;99.90;;;;;;4998642;28;20493;-57
2021/03/02 13:10:33;;;;;;;32.40;18.30;;;13.60;99.90;;;;;;4994442;28;20546;-54
2021/03/02 13:13:03;;;;;;;28.30;16.73;;;13.80;99.90;;;;;;4998751;28;20441;-57
2021/03/02 13:15:32;;;;;;;32.13;17.70;;;13.90;99.90;;;;;;4999673;28;20704;-56
2021/03/02 13:18:03;;;;;;;31.37;17.53;;;14.10;99.90;;;;;;4997319;28;20811;-56
2021/03/02 13:20:32;;;;;;;28.27;17.83;;;14.20;99.80;;;;;;4998659;28;20842;-56
2021/03/02 13:23:00;;;;;;;25.43;16.67;;;14.20;99.40;;;;;;4998877;28;20768;-56
2021/03/02 13:25:28;;;;;;;29.17;18.30;;;14.20;99.90;;;;;;4998094;28;20454;-57
2021/03/02 13:27:58;;;;;;;30.57;19.40;;;14.30;99.10;;;;;;4979954;28;20782;-53
2021/03/02 13:30:29;;;;;;;31.40;18.03;;;14.40;98.70;;;;;;4978420;28;20759;-57
2021/03/02 13:33:01;;;;;;;46.47;19.90;;;14.40;98.30;;;;;;4978357;28;20446;-57
2021/03/02 13:35:30;;;;;;;39.40;19.17;;;14.50;98.20;;;;;;4979614;28;20754;-55
2021/03/02 13:38:02;;;;;;;33.30;17.27;;;14.60;98.00;;;;;;4979042;28;20807;-55
2021/03/02 13:40:31;;;;;;;30.90;17.90;;;14.70;97.90;;;;;;4979012;28;20806;-57
2021/03/02 13:43:01;;;;;;;30.70;18.93;;;14.80;97.30;;;;;;4979279;28;20804;-52
2021/03/02 13:45:31;;;;;;;26.07;17.80;;;14.80;97.60;;;;;;4979075;28;20462;-55
2021/03/02 13:47:59;;;;;;;28.90;18.80;;;14.80;95.40;;;;;;4979118;28;21126;-56
2021/03/02 13:50:28;;;;;;;30.47;18.30;;;14.80;95.00;;;;;;4979428;28;20835;-57
2021/03/02 13:52:57;;;;;;;36.10;20.33;;;14.80;95.40;;;;;;4979421;28;20783;-55
2021/03/02 13:55:25;;;;;;;34.30;21.40;;;14.80;95.30;;;;;;4979374;28;20944;-56
2021/03/02 13:57:53;;;;;;;27.13;17.27;;;14.90;95.00;;;;;;4976758;28;20803;-56
2021/03/02 14:00:24;;;;;;;30.13;18.87;;;14.90;94.60;;;;;;4976786;28;20812;-58
2021/03/02 14:02:55;;;;;;;32.30;18.00;;;14.90;94.60;;;;;;4977035;28;20812;-56
2021/03/02 14:05:25;;;;;;;27.20;18.20;;;15.00;94.60;;;;;;4977214;28;20813;-54
2021/03/02 14:07:56;;;;;;;29.17;16.70;;;15.00;93.90;;;;;;4976365;28;20788;-56
2021/03/02 14:10:26;;;;;;;34.03;19.47;;;15.10;93.80;;;;;;4977300;28;20796;-55
2021/03/02 14:12:57;;;;;;;40.07;23.00;;;15.20;93.70;;;;;;4976729;28;20921;-57
2021/03/02 14:15:27;;;;;;;38.80;19.93;;;15.30;93.40;;;;;;4977386;28;20956;-57
2021/03/02 14:17:57;;;;;;;31.70;19.80;;;15.30;93.50;;;;;;4994327;28;20850;-57
2021/03/02 14:20:26;;;;;;;27.53;17.80;;;15.30;93.30;;;;;;4989908;28;20836;-55
2021/03/02 14:22:55;;;;;;;28.43;18.27;;;15.40;95.70;;;;;;4979064;28;20900;-56
2021/03/02 14:25:25;;;;;;;39.10;19.47;;;15.60;93.50;;;;;;4984682;28;20779;-54
2021/03/02 14:27:54;;;;;;;29.30;18.80;;;15.60;93.50;;;;;;4985931;28;20919;-55
2021/03/02 14:30:24;;;;;;;36.73;19.27;;;15.70;92.90;;;;;;4980012;28;20754;-56
2021/03/02 14:32:53;;;;;;;33.50;18.80;;;15.80;92.30;;;;;;4971164;28;20455;-56
2021/03/02 14:35:23;;;;;;;33.90;18.63;;;15.80;92.00;;;;;;4969306;28;20951;-55
2021/03/02 14:37:52;;;;;;;30.93;19.13;;;15.90;91.10;;;;;;4966698;28;20794;-58
2021/03/02 14:40:21;;;;;;;34.63;19.80;;;15.80;90.70;;;;;;4958463;29;20801;-56
2021/03/02 14:42:54;;;;;;;28.53;19.13;;;15.80;90.70;;;;;;4963119;28;20535;-58
2021/03/02 14:45:26;;;;;;;28.67;17.70;;;15.80;90.80;;;;;;4975469;28;20859;-58
2021/03/02 14:47:59;;;;;;;28.57;18.80;;;15.70;91.00;;;;;;4970044;28;20455;-54
2021/03/02 14:50:29;;;;;;;28.47;18.57;;;15.70;91.00;;;;;;4968545;28;20959;-57
2021/03/02 14:52:57;;;;;;;31.77;19.10;;;15.70;91.20;;;;;;4973280;28;20790;-56
2021/03/02 14:55:26;;;;;;;33.83;19.97;;;15.70;91.30;;;;;;4958118;29;20783;-56
2021/03/02 14:57:57;;;;;;;27.43;18.30;;;15.60;91.10;;;;;;4957706;29;20832;-56
2021/03/02 15:00:26;;;;;;;31.10;18.80;;;15.60;92.30;;;;;;4967945;28;20808;-53
2021/03/02 15:02:56;;;;;;;33.83;17.63;;;15.60;90.40;;;;;;4977373;28;20987;-51
2021/03/02 15:05:24;;;;;;;34.23;20.43;;;15.50;90.50;;;;;;4977638;28;20861;-53
2021/03/02 15:07:55;;;;;;;32.97;18.63;;;15.40;90.70;;;;;;4976823;28;20503;-50
2021/03/02 15:10:23;;;;;;;37.70;19.83;;;15.30;90.80;;;;;;4976900;28;20774;-56
2021/03/02 15:12:51;;;;;;;33.70;20.40;;;15.20;90.90;;;;;;4977556;28;20750;-57
2021/03/02 15:15:21;;;;;;;42.27;20.03;;;15.10;91.10;;;;;;4977221;28;20538;-58
2021/03/02 15:17:50;;;;;;;35.20;18.07;;;15.10;91.20;;;;;;4977462;28;20762;-58
2021/03/02 15:20:20;;;;;;;32.80;18.33;;;15.00;91.50;;;;;;4976100;28;20819;-57
2021/03/02 15:22:49;;;;;;;37.73;16.13;;;14.90;91.50;;;;;;4976941;28;20915;-52
2021/03/02 15:25:20;;;;;;;32.67;18.53;;;14.90;91.50;;;;;;4977155;28;20958;-57
2021/03/02 15:27:49;;;;;;;38.07;19.60;;;14.70;92.00;;;;;;4977099;28;20443;-56
2021/03/02 15:30:19;;;;;;;39.50;18.63;;;14.70;91.60;;;;;;4976879;28;20883;-55